Amunt
Inicio > meteoXarxa
Fes-te'n soci

METEOXARXA

Sant Rafel del Riu
Ubicació
Comarca el Baix Maestrat
Altitud (msnm)
Posició geogràfica 40° 35' 24.00" N, 00° 22' 9.84" E
Model
Presa de dades
Font de les dades IVIA
Estadístiques. Resum
Data Temperatura (ºC) Humitat (%) Pressió (hPa) Vent (km/h) Precipit. (mm)
Mínima Mitjana Màxima Mínima Mitjana Màxima Mínima Mitjana Màxima Predom. Mitjana Ràfega màxima Total Dies de pluja
Mínima Mitjana Màxima Mínima Mitjana Màxima
Últimes dades diàries
15-01-2017 3,6     8,8     12,8 51,9 N 11,4 34,1 0,0  
13-01-2017 6,7     10,5     15,9 48,0 NW 8,6 37,4 0,0  
12-01-2017 4,9     11,1     18,3 75,3 NW 3,4 24,5 0,0  
11-01-2017 4,2     9,4     13,3 65,9 SE 5,4 27,9 0,0  
10-01-2017 7,2     11,6     13,8 53,0 NW 10,6 41,5 0,0  
09-01-2017 1,8     8,4     13,2 65,1 NW 3,9 19,3 0,0  
08-01-2017 -1,7     6,0     14,9 58,0 N 3,7 17,7 0,0  
07-01-2017 -1,2     4,6     11,9 72,7 NW 3,8 11,1 0,0  
06-01-2017 0,0     4,4     11,8 67,5 NW 3,8 13,4 0,0  
05-01-2017 2,0     9,9     16,5 45,5 NW 5,4 23,1 0,0  
04-01-2017 3,2     8,0     12,7 89,7 SW 3,5 23,4 0,2  
03-01-2017 -0,1     5,5     11,7 85,8 N 3,3 13,3 0,0  
02-01-2017 -0,4     2,7     7,8 89,7 N 6,4 17,6 0,0  
01-01-2017 -1,0     2,2     6,7 90,6 N 6,7 15,5 0,2  
31-12-2016 0,4     3,2     8,2 90,2 NE 7,1 17,5 0,0  
30-12-2016 -0,2     2,8     8,3 89,1 N 7,0 18,1 0,2  
29-12-2016 -0,8     2,9     10,4 85,5 N 5,8 12,9 0,2  
28-12-2016 0,6     4,5     11,8 89,0 N 5,5 11,8 0,2  
27-12-2016 2,6     5,6     10,7 88,8 N 5,9 15,9 0,2  
22-12-2016 3,2     8,5     14,6 80,0 N 4,6 15,5 0,0  
21-12-2016 4,6     9,2     15,2 66,5 N 5,1 19,4 0,0  
20-12-2016 6,4     10,5     14,2 57,2 NW 11,8 34,6 0,0  
19-12-2016 5,2     6,2     8,4 73,7 91,3 97,9 NE 7,5 19,4 3,4  
18-12-2016 7,5     9,1     11,4 69,4 78,2 86,9 NE 8,9 20,9 1,0  
17-12-2016 8,2     10,4     11,8 79,0 90,3 99,2 NE 9,1 25,9 10,9  
16-12-2016 7,6     10,0     11,8 89,8 96,8 99,7 NE 7,7 22,9 19,3  
15-12-2016 3,7     7,0     10,6 77,4 91,9 99,4 N 5,3 15,8 0,8  
14-12-2016 4,2     7,8     14,1 69,9 91,7 99,6 N 3,2 12,0 0,2  
13-12-2016 1,6     6,9     12,9 63,2 88,5 100,0 N 3,5 9,6 0,2  
12-12-2016 2,8     6,5     13,3 62,1 88,2 99,4 N 4,8 12,7 0,2  
11-12-2016 3,8     7,4     15,1 64,6 90,8 100,0 N 5,0 11,9 0,2  
10-12-2016 5,3     9,6     16,8 61,5 87,9 99,5 N 3,5 10,7 0,2  
Dades del mes en curs (actualitzades fins l'últim dia disponible)
01/2017 -1,7 2,1 7,2 7,4 6,7 13,0 18,3 68,5   5,7 41,5 0,4  
Últimes dades mensuals
12/2016 -0,8 4,5 11,7 8,0 8,2 13,1 16,8 57,2 87,0 96,8 5,6 34,6 64,9 22
11/2016 2,9 7,8 12,1 12,1 10,9 16,8 24,7 44,2 74,9 96,7 4,9 37,8 118,6 14
10/2016 7,8 12,7 16,8 16,9 15,9 21,7 25,5 60,4 81,8 94,2 3,2 22,5 26,5 15
09/2016 11,8 16,4 21,3 27,0 37,8 18,6 70,2 98,9 O 4,3 45,0 57,1
08/2016 14,1 18,2 23,6 29,0 31,6 24,8 66,8 97,8 S 4,4 24,5 2,8
07/2016 13,0 18,2 24,2 29,6 32,6 21,6 62,2 98,1 S 5,0 28,3 0,6
06/2016 12,2 15,8 20,5 21,1 22,8 26,6 32,4 37,3 63,3 84,5 5,1 38,2 16,3 9
05/2016 7,8 11,7 16,4 21,2 26,5 20,1 68,0 100,0 SO 5,9 45,2 48,4
04/2016 5,1 8,8 13,6 18,5 23,3 23,5 68,6 100,0 NO 6,0 46,9 63,9
03/2016 1,3 6,6 11,0 15,9 22,1 21,1 63,5 100,0 NO 7,3 51,5 45,0
02/2016 -1,4 5,7 10,7 16,2 23,5 15,1 60,0 99,2 NO 6,7 109,4 18,1
01/2016 1,3 5,8 10,2 15,2 23,0 26,2 70,8 100,0 NO 5,0 45,4 11,9
12/2015 2,1 5,6 10,0 16,1 19,6 38,5 84,9 100,0 NO 2,8 15,6 2,8
Dades de l'any en curs (actualitzades fins l'últim dia disponible)
2017 -1,7 2,1 7,2 7,4 6,7 13,0 18,3 68,5   5,7 41,5 0,4  
Últimes dades anuals
2007 616,0
2008 662,0
2009 -1,4 13,9 22,7 18,9 4,1 24,2 38,2 34,0 65,5 96,0 4,1 60,0 395,0 62
2010 -2,3 10,4 21,7 15,0 3,1 20,0 35,2 32,0 68,5 100,0 5,8 70,0 493,0 99
2011 427,6
2012 542,3
2014 -1,6 11,9 16,4 21,4 31,8 13,7 69,9 99,4 O 5,5 66,9 557,7
2015 -1,6 11,9 17,0 22,7 41,3 7,4 66,1 97,5 NO 5,1 58,4 515,5